sensor_id;sensor_type;location;lat;lon;timestamp;temperature;humidity
316;DHT22;14128;48.686;9.738;2023-05-17T00:00:47;4.90;1.00
316;DHT22;14128;48.686;9.738;2023-05-17T00:03:13;4.90;1.00
316;DHT22;14128;48.686;9.738;2023-05-17T00:05:40;4.90;99.90
316;DHT22;14128;48.686;9.738;2023-05-17T00:08:08;4.80;99.90
316;DHT22;14128;48.686;9.738;2023-05-17T00:10:35;4.80;99.90
316;DHT22;14128;48.686;9.738;2023-05-17T00:13:02;4.80;6.30
316;DHT22;14128;48.686;9.738;2023-05-17T00:15:29;4.80;99.90
316;DHT22;14128;48.686;9.738;2023-05-17T00:17:56;4.70;99.90
316;DHT22;14128;48.686;9.738;2023-05-17T00:20:22;4.80;1.00
316;DHT22;14128;48.686;9.738;2023-05-17T00:22:49;4.90;94.90
316;DHT22;14128;48.686;9.738;2023-05-17T00:25:17;4.90;99.90
316;DHT22;14128;48.686;9.738;2023-05-17T00:27:44;4.90;1.00
316;DHT22;14128;48.686;9.738;2023-05-17T00:30:11;4.90;99.90
316;DHT22;14128;48.686;9.738;2023-05-17T00:32:39;4.90;99.10
316;DHT22;14128;48.686;9.738;2023-05-17T00:35:06;4.90;99.90
316;DHT22;14128;48.686;9.738;2023-05-17T00:37:33;5.00;99.90
316;DHT22;14128;48.686;9.738;2023-05-17T00:40:00;5.20;99.90
316;DHT22;14128;48.686;9.738;2023-05-17T00:42:28;5.10;99.90
316;DHT22;14128;48.686;9.738;2023-05-17T00:44:54;5.10;99.90
316;DHT22;14128;48.686;9.738;2023-05-17T00:47:21;5.20;99.90
316;DHT22;14128;48.686;9.738;2023-05-17T00:49:48;5.20;99.90
316;DHT22;14128;48.686;9.738;2023-05-17T00:52:16;5.10;99.90
316;DHT22;14128;48.686;9.738;2023-05-17T00:54:43;5.20;1.40
316;DHT22;14128;48.686;9.738;2023-05-17T00:57:10;5.20;1.40
316;DHT22;14128;48.686;9.738;2023-05-17T00:59:38;5.30;1.40
316;DHT22;14128;48.686;9.738;2023-05-17T01:02:06;5.40;1.40
316;DHT22;14128;48.686;9.738;2023-05-17T01:04:33;5.50;1.40
316;DHT22;14128;48.686;9.738;2023-05-17T01:07:00;5.40;1.40
316;DHT22;14128;48.686;9.738;2023-05-17T01:09:27;5.30;1.40
316;DHT22;14128;48.686;9.738;2023-05-17T01:12:02;5.20;1.40
316;DHT22;14128;48.686;9.738;2023-05-17T01:14:40;5.20;1.40
316;DHT22;14128;48.686;9.738;2023-05-17T01:17:15;5.20;1.40
316;DHT22;14128;48.686;9.738;2023-05-17T01:19:54;5.20;1.40
316;DHT22;14128;48.686;9.738;2023-05-17T01:22:30;5.20;1.40
316;DHT22;14128;48.686;9.738;2023-05-17T01:25:10;5.20;1.40
316;DHT22;14128;48.686;9.738;2023-05-17T01:27:40;5.20;1.40
316;DHT22;14128;48.686;9.738;2023-05-17T01:30:11;5.10;1.40
316;DHT22;14128;48.686;9.738;2023-05-17T01:32:40;5.10;1.40
316;DHT22;14128;48.686;9.738;2023-05-17T01:35:09;5.00;1.40
316;DHT22;14128;48.686;9.738;2023-05-17T01:37:36;5.00;1.40
316;DHT22;14128;48.686;9.738;2023-05-17T01:40:04;4.90;1.40
316;DHT22;14128;48.686;9.738;2023-05-17T01:42:33;4.80;1.40
316;DHT22;14128;48.686;9.738;2023-05-17T01:45:06;4.70;1.40
316;DHT22;14128;48.686;9.738;2023-05-17T01:47:40;4.60;1.40
316;DHT22;14128;48.686;9.738;2023-05-17T01:50:09;4.50;1.40
316;DHT22;14128;48.686;9.738;2023-05-17T01:52:44;4.40;1.40
316;DHT22;14128;48.686;9.738;2023-05-17T01:55:25;4.30;1.40
316;DHT22;14128;48.686;9.738;2023-05-17T01:57:54;4.20;1.40
316;DHT22;14128;48.686;9.738;2023-05-17T02:00:24;4.20;1.40
316;DHT22;14128;48.686;9.738;2023-05-17T02:02:51;4.20;1.40
316;DHT22;14128;48.686;9.738;2023-05-17T02:05:18;4.10;1.40
316;DHT22;14128;48.686;9.738;2023-05-17T02:07:45;4.10;1.40
316;DHT22;14128;48.686;9.738;2023-05-17T02:10:12;4.10;1.40
316;DHT22;14128;48.686;9.738;2023-05-17T02:12:39;4.00;1.40
316;DHT22;14128;48.686;9.738;2023-05-17T02:15:07;4.00;1.40
316;DHT22;14128;48.686;9.738;2023-05-17T02:17:37;3.90;1.40
316;DHT22;14128;48.686;9.738;2023-05-17T02:20:06;3.80;1.40
316;DHT22;14128;48.686;9.738;2023-05-17T02:22:33;3.80;1.40
316;DHT22;14128;48.686;9.738;2023-05-17T02:25:00;3.80;1.40
316;DHT22;14128;48.686;9.738;2023-05-17T02:27:26;3.70;1.40
316;DHT22;14128;48.686;9.738;2023-05-17T02:29:53;3.70;1.40
316;DHT22;14128;48.686;9.738;2023-05-17T02:32:20;3.80;1.40
316;DHT22;14128;48.686;9.738;2023-05-17T02:34:48;3.70;1.40
316;DHT22;14128;48.686;9.738;2023-05-17T02:37:15;3.70;1.40
316;DHT22;14128;48.686;9.738;2023-05-17T02:39:42;3.70;1.40
316;DHT22;14128;48.686;9.738;2023-05-17T02:42:09;3.70;1.40
316;DHT22;14128;48.686;9.738;2023-05-17T02:44:36;3.70;1.40
316;DHT22;14128;48.686;9.738;2023-05-17T02:47:03;3.80;1.40
316;DHT22;14128;48.686;9.738;2023-05-17T02:49:30;3.70;1.40
316;DHT22;14128;48.686;9.738;2023-05-17T02:51:58;3.70;1.40
316;DHT22;14128;48.686;9.738;2023-05-17T02:54:26;3.80;1.40
316;DHT22;14128;48.686;9.738;2023-05-17T02:56:53;3.80;1.40
316;DHT22;14128;48.686;9.738;2023-05-17T02:59:20;3.60;1.40
316;DHT22;14128;48.686;9.738;2023-05-17T03:01:47;3.60;1.40
316;DHT22;14128;48.686;9.738;2023-05-17T03:04:14;3.60;1.40
316;DHT22;14128;48.686;9.738;2023-05-17T03:06:41;3.60;1.40
316;DHT22;14128;48.686;9.738;2023-05-17T03:09:09;3.60;1.40
316;DHT22;14128;48.686;9.738;2023-05-17T03:11:36;3.60;1.40
316;DHT22;14128;48.686;9.738;2023-05-17T03:14:03;3.50;1.40
316;DHT22;14128;48.686;9.738;2023-05-17T03:16:29;3.50;1.40
316;DHT22;14128;48.686;9.738;2023-05-17T03:18:56;3.50;1.40
316;DHT22;14128;48.686;9.738;2023-05-17T03:21:23;3.50;1.40
316;DHT22;14128;48.686;9.738;2023-05-17T03:23:50;3.40;1.40
316;DHT22;14128;48.686;9.738;2023-05-17T03:26:18;3.40;1.40
316;DHT22;14128;48.686;9.738;2023-05-17T03:28:45;3.30;1.40
316;DHT22;14128;48.686;9.738;2023-05-17T03:31:12;3.30;1.40
316;DHT22;14128;48.686;9.738;2023-05-17T03:33:39;3.20;1.40
316;DHT22;14128;48.686;9.738;2023-05-17T03:36:06;3.10;1.40
316;DHT22;14128;48.686;9.738;2023-05-17T03:38:32;3.10;1.40
316;DHT22;14128;48.686;9.738;2023-05-17T03:41:00;3.10;1.40
316;DHT22;14128;48.686;9.738;2023-05-17T03:43:28;3.10;1.40
316;DHT22;14128;48.686;9.738;2023-05-17T03:45:55;3.00;1.40
316;DHT22;14128;48.686;9.738;2023-05-17T03:48:22;3.00;1.40
316;DHT22;14128;48.686;9.738;2023-05-17T03:50:49;3.10;1.40
316;DHT22;14128;48.686;9.738;2023-05-17T03:53:16;3.10;1.40
316;DHT22;14128;48.686;9.738;2023-05-17T03:55:42;3.20;1.40
316;DHT22;14128;48.686;9.738;2023-05-17T03:58:09;3.20;1.40
316;DHT22;14128;48.686;9.738;2023-05-17T04:00:37;3.20;1.40
316;DHT22;14128;48.686;9.738;2023-05-17T04:03:04;3.20;1.40
316;DHT22;14128;48.686;9.738;2023-05-17T04:05:31;3.20;1.40
316;DHT22;14128;48.686;9.738;2023-05-17T04:07:58;3.10;1.40
316;DHT22;14128;48.686;9.738;2023-05-17T04:10:25;3.20;1.40
316;DHT22;14128;48.686;9.738;2023-05-17T04:12:52;3.20;1.40
316;DHT22;14128;48.686;9.738;2023-05-17T04:15:19;3.30;1.40
316;DHT22;14128;48.686;9.738;2023-05-17T04:17:47;3.30;1.40
316;DHT22;14128;48.686;9.738;2023-05-17T04:20:14;3.30;1.40
316;DHT22;14128;48.686;9.738;2023-05-17T04:22:41;3.40;1.40
316;DHT22;14128;48.686;9.738;2023-05-17T04:25:08;3.60;1.40
316;DHT22;14128;48.686;9.738;2023-05-17T04:27:35;3.60;1.40
316;DHT22;14128;48.686;9.738;2023-05-17T04:30:02;3.60;1.40
316;DHT22;14128;48.686;9.738;2023-05-17T04:32:29;3.70;1.40
316;DHT22;14128;48.686;9.738;2023-05-17T04:34:57;3.80;1.40
316;DHT22;14128;48.686;9.738;2023-05-17T04:37:23;3.90;1.40
316;DHT22;14128;48.686;9.738;2023-05-17T04:39:51;4.10;1.40
316;DHT22;14128;48.686;9.738;2023-05-17T04:42:18;4.20;1.40
316;DHT22;14128;48.686;9.738;2023-05-17T04:44:45;4.40;1.40
316;DHT22;14128;48.686;9.738;2023-05-17T04:47:12;4.40;1.40
316;DHT22;14128;48.686;9.738;2023-05-17T04:49:39;4.50;1.40
316;DHT22;14128;48.686;9.738;2023-05-17T04:52:07;4.50;1.40
316;DHT22;14128;48.686;9.738;2023-05-17T04:54:34;4.50;1.40
316;DHT22;14128;48.686;9.738;2023-05-17T04:57:01;4.50;1.40
316;DHT22;14128;48.686;9.738;2023-05-17T04:59:28;4.60;1.40
316;DHT22;14128;48.686;9.738;2023-05-17T05:01:54;4.70;1.40
316;DHT22;14128;48.686;9.738;2023-05-17T05:04:22;4.90;1.40
316;DHT22;14128;48.686;9.738;2023-05-17T05:06:49;5.00;1.40
316;DHT22;14128;48.686;9.738;2023-05-17T05:09:18;5.10;1.40
316;DHT22;14128;48.686;9.738;2023-05-17T05:11:44;5.10;1.40
316;DHT22;14128;48.686;9.738;2023-05-17T05:14:11;5.20;1.40
316;DHT22;14128;48.686;9.738;2023-05-17T05:16:38;5.20;1.40
316;DHT22;14128;48.686;9.738;2023-05-17T05:19:05;5.30;1.40
316;DHT22;14128;48.686;9.738;2023-05-17T05:21:33;5.30;1.40
316;DHT22;14128;48.686;9.738;2023-05-17T05:24:00;5.40;1.40
316;DHT22;14128;48.686;9.738;2023-05-17T05:26:29;5.50;1.40
316;DHT22;14128;48.686;9.738;2023-05-17T05:28:56;5.60;1.40
316;DHT22;14128;48.686;9.738;2023-05-17T05:31:23;5.60;1.40
316;DHT22;14128;48.686;9.738;2023-05-17T05:33:50;5.60;1.40
316;DHT22;14128;48.686;9.738;2023-05-17T05:36:17;5.70;1.40
316;DHT22;14128;48.686;9.738;2023-05-17T05:38:43;5.80;1.40
316;DHT22;14128;48.686;9.738;2023-05-17T05:41:10;5.90;1.40
316;DHT22;14128;48.686;9.738;2023-05-17T05:43:38;6.10;1.40
316;DHT22;14128;48.686;9.738;2023-05-17T05:46:05;6.10;1.40
316;DHT22;14128;48.686;9.738;2023-05-17T05:48:32;6.30;1.40
316;DHT22;14128;48.686;9.738;2023-05-17T05:50:59;6.50;1.40
316;DHT22;14128;48.686;9.738;2023-05-17T05:53:26;6.60;1.40
316;DHT22;14128;48.686;9.738;2023-05-17T05:55:52;6.70;1.40
316;DHT22;14128;48.686;9.738;2023-05-17T05:58:19;6.80;1.40
316;DHT22;14128;48.686;9.738;2023-05-17T06:00:48;7.00;1.40
316;DHT22;14128;48.686;9.738;2023-05-17T06:03:14;7.10;1.40
316;DHT22;14128;48.686;9.738;2023-05-17T06:05:41;7.30;1.40
316;DHT22;14128;48.686;9.738;2023-05-17T06:08:08;7.40;1.40
316;DHT22;14128;48.686;9.738;2023-05-17T06:10:35;7.50;1.40
316;DHT22;14128;48.686;9.738;2023-05-17T06:13:02;7.70;1.40
316;DHT22;14128;48.686;9.738;2023-05-17T06:15:30;7.90;1.40
316;DHT22;14128;48.686;9.738;2023-05-17T06:17:58;8.00;1.40
316;DHT22;14128;48.686;9.738;2023-05-17T06:20:25;8.10;1.40
316;DHT22;14128;48.686;9.738;2023-05-17T06:22:52;8.10;1.40
316;DHT22;14128;48.686;9.738;2023-05-17T06:25:18;8.20;1.40
316;DHT22;14128;48.686;9.738;2023-05-17T06:27:45;8.30;1.40
316;DHT22;14128;48.686;9.738;2023-05-17T06:30:12;8.40;1.40
316;DHT22;14128;48.686;9.738;2023-05-17T06:32:39;8.40;1.40
316;DHT22;14128;48.686;9.738;2023-05-17T06:35:09;8.50;1.40
316;DHT22;14128;48.686;9.738;2023-05-17T06:37:36;8.50;1.40
316;DHT22;14128;48.686;9.738;2023-05-17T06:40:04;8.60;1.40
316;DHT22;14128;48.686;9.738;2023-05-17T06:42:32;8.70;1.40
316;DHT22;14128;48.686;9.738;2023-05-17T06:44:59;8.70;1.40
316;DHT22;14128;48.686;9.738;2023-05-17T06:47:26;8.80;1.40
316;DHT22;14128;48.686;9.738;2023-05-17T06:49:52;9.00;1.40
316;DHT22;14128;48.686;9.738;2023-05-17T06:52:21;9.00;1.40
316;DHT22;14128;48.686;9.738;2023-05-17T06:54:47;9.20;1.40
316;DHT22;14128;48.686;9.738;2023-05-17T06:57:14;9.30;1.40
316;DHT22;14128;48.686;9.738;2023-05-17T06:59:41;9.30;1.00
316;DHT22;14128;48.686;9.738;2023-05-17T07:02:08;9.20;99.90
316;DHT22;14128;48.686;9.738;2023-05-17T07:04:35;9.20;1.40
316;DHT22;14128;48.686;9.738;2023-05-17T07:07:02;9.30;1.40
316;DHT22;14128;48.686;9.738;2023-05-17T07:09:30;9.40;1.40
316;DHT22;14128;48.686;9.738;2023-05-17T07:11:57;9.50;1.40
316;DHT22;14128;48.686;9.738;2023-05-17T07:14:23;9.60;1.40
316;DHT22;14128;48.686;9.738;2023-05-17T07:16:50;9.70;1.40
316;DHT22;14128;48.686;9.738;2023-05-17T07:19:17;9.80;1.40
316;DHT22;14128;48.686;9.738;2023-05-17T07:21:44;9.90;1.40
316;DHT22;14128;48.686;9.738;2023-05-17T07:24:11;10.00;1.40
316;DHT22;14128;48.686;9.738;2023-05-17T07:26:39;10.20;1.40
316;DHT22;14128;48.686;9.738;2023-05-17T07:29:06;10.40;1.40
316;DHT22;14128;48.686;9.738;2023-05-17T07:31:33;10.50;1.40
316;DHT22;14128;48.686;9.738;2023-05-17T07:33:59;10.60;1.40
316;DHT22;14128;48.686;9.738;2023-05-17T07:36:26;10.60;1.40
316;DHT22;14128;48.686;9.738;2023-05-17T07:38:55;10.80;1.40
316;DHT22;14128;48.686;9.738;2023-05-17T07:41:21;11.00;1.40
316;DHT22;14128;48.686;9.738;2023-05-17T07:43:50;11.10;1.00
316;DHT22;14128;48.686;9.738;2023-05-17T07:46:17;11.20;66.30
316;DHT22;14128;48.686;9.738;2023-05-17T07:48:44;11.40;99.90
316;DHT22;14128;48.686;9.738;2023-05-17T07:51:10;11.60;1.40
316;DHT22;14128;48.686;9.738;2023-05-17T07:53:37;11.80;1.40
316;DHT22;14128;48.686;9.738;2023-05-17T07:56:04;11.70;1.40
316;DHT22;14128;48.686;9.738;2023-05-17T07:58:31;11.70;99.90
316;DHT22;14128;48.686;9.738;2023-05-17T08:00:59;11.90;99.90
316;DHT22;14128;48.686;9.738;2023-05-17T08:03:27;11.90;99.90
316;DHT22;14128;48.686;9.738;2023-05-17T08:05:53;12.10;99.90
316;DHT22;14128;48.686;9.738;2023-05-17T08:08:21;12.40;99.90
316;DHT22;14128;48.686;9.738;2023-05-17T08:10:48;12.70;99.90
316;DHT22;14128;48.686;9.738;2023-05-17T08:13:14;13.10;99.90
316;DHT22;14128;48.686;9.738;2023-05-17T08:15:41;13.30;99.90
316;DHT22;14128;48.686;9.738;2023-05-17T08:18:09;13.50;99.90
316;DHT22;14128;48.686;9.738;2023-05-17T08:20:36;13.30;99.90
316;DHT22;14128;48.686;9.738;2023-05-17T08:23:03;13.40;99.90
316;DHT22;14128;48.686;9.738;2023-05-17T08:25:30;13.60;99.90
316;DHT22;14128;48.686;9.738;2023-05-17T08:27:57;13.70;99.90
316;DHT22;14128;48.686;9.738;2023-05-17T08:30:24;13.90;99.90
316;DHT22;14128;48.686;9.738;2023-05-17T08:32:50;14.20;40.00
316;DHT22;14128;48.686;9.738;2023-05-17T08:35:19;14.20;35.70
316;DHT22;14128;48.686;9.738;2023-05-17T08:37:46;14.10;99.90
316;DHT22;14128;48.686;9.738;2023-05-17T08:40:13;14.10;30.70
316;DHT22;14128;48.686;9.738;2023-05-17T08:42:44;14.50;1.00
316;DHT22;14128;48.686;9.738;2023-05-17T08:45:12;14.20;1.00
316;DHT22;14128;48.686;9.738;2023-05-17T08:47:42;14.00;28.00
316;DHT22;14128;48.686;9.738;2023-05-17T08:50:11;13.70;17.30
316;DHT22;14128;48.686;9.738;2023-05-17T08:52:44;13.30;99.90
316;DHT22;14128;48.686;9.738;2023-05-17T08:55:11;13.20;99.90
316;DHT22;14128;48.686;9.738;2023-05-17T08:57:41;13.20;99.90
316;DHT22;14128;48.686;9.738;2023-05-17T09:00:11;13.40;92.80
316;DHT22;14128;48.686;9.738;2023-05-17T09:02:39;13.60;13.10
316;DHT22;14128;48.686;9.738;2023-05-17T09:05:07;13.60;1.00
316;DHT22;14128;48.686;9.738;2023-05-17T09:07:35;13.70;1.00
316;DHT22;14128;48.686;9.738;2023-05-17T09:10:04;13.80;99.90
316;DHT22;14128;48.686;9.738;2023-05-17T09:12:31;14.00;99.90
316;DHT22;14128;48.686;9.738;2023-05-17T09:15:11;14.30;99.90
316;DHT22;14128;48.686;9.738;2023-05-17T09:17:39;14.40;99.90
316;DHT22;14128;48.686;9.738;2023-05-17T09:20:07;14.20;99.90
316;DHT22;14128;48.686;9.738;2023-05-17T09:22:35;14.10;99.90
316;DHT22;14128;48.686;9.738;2023-05-17T09:25:04;14.10;99.90
316;DHT22;14128;48.686;9.738;2023-05-17T09:27:31;14.30;99.90
316;DHT22;14128;48.686;9.738;2023-05-17T09:29:58;14.20;99.90
316;DHT22;14128;48.686;9.738;2023-05-17T09:32:25;14.10;99.90
316;DHT22;14128;48.686;9.738;2023-05-17T09:34:53;14.00;99.90
316;DHT22;14128;48.686;9.738;2023-05-17T09:37:22;13.80;1.00
316;DHT22;14128;48.686;9.738;2023-05-17T09:39:50;13.70;99.90
316;DHT22;14128;48.686;9.738;2023-05-17T09:42:24;13.90;99.90
316;DHT22;14128;48.686;9.738;2023-05-17T09:44:53;14.10;99.90
316;DHT22;14128;48.686;9.738;2023-05-17T09:47:26;14.10;99.90
316;DHT22;14128;48.686;9.738;2023-05-17T09:49:55;14.20;99.90
316;DHT22;14128;48.686;9.738;2023-05-17T09:52:23;14.00;99.90
316;DHT22;14128;48.686;9.738;2023-05-17T09:54:54;14.30;99.90
316;DHT22;14128;48.686;9.738;2023-05-17T09:57:23;14.50;99.90
316;DHT22;14128;48.686;9.738;2023-05-17T09:59:54;14.40;99.90
316;DHT22;14128;48.686;9.738;2023-05-17T10:02:25;14.50;99.90
316;DHT22;14128;48.686;9.738;2023-05-17T10:04:55;14.90;99.90
316;DHT22;14128;48.686;9.738;2023-05-17T10:07:24;14.90;99.90
316;DHT22;14128;48.686;9.738;2023-05-17T10:09:53;14.80;99.90
316;DHT22;14128;48.686;9.738;2023-05-17T10:12:22;14.60;99.90
316;DHT22;14128;48.686;9.738;2023-05-17T10:14:51;14.60;99.90
316;DHT22;14128;48.686;9.738;2023-05-17T10:17:20;14.60;99.90
316;DHT22;14128;48.686;9.738;2023-05-17T10:19:48;14.70;99.90
316;DHT22;14128;48.686;9.738;2023-05-17T10:22:16;15.20;99.90
316;DHT22;14128;48.686;9.738;2023-05-17T10:24:44;15.90;99.90
316;DHT22;14128;48.686;9.738;2023-05-17T10:27:12;15.80;99.90
316;DHT22;14128;48.686;9.738;2023-05-17T10:29:42;15.80;99.90
316;DHT22;14128;48.686;9.738;2023-05-17T10:32:12;15.80;99.90
316;DHT22;14128;48.686;9.738;2023-05-17T10:34:42;15.80;99.90
316;DHT22;14128;48.686;9.738;2023-05-17T10:37:09;15.40;99.90
316;DHT22;14128;48.686;9.738;2023-05-17T10:39:37;15.50;99.90
316;DHT22;14128;48.686;9.738;2023-05-17T10:42:06;15.50;99.90
316;DHT22;14128;48.686;9.738;2023-05-17T10:44:35;15.90;99.90
316;DHT22;14128;48.686;9.738;2023-05-17T10:47:03;16.50;99.90
316;DHT22;14128;48.686;9.738;2023-05-17T10:49:31;17.30;99.90
316;DHT22;14128;48.686;9.738;2023-05-17T10:52:01;17.50;99.90
316;DHT22;14128;48.686;9.738;2023-05-17T10:54:39;17.00;99.90
316;DHT22;14128;48.686;9.738;2023-05-17T10:57:06;16.30;99.90
316;DHT22;14128;48.686;9.738;2023-05-17T10:59:34;15.70;99.90
316;DHT22;14128;48.686;9.738;2023-05-17T11:02:04;15.80;99.90
316;DHT22;14128;48.686;9.738;2023-05-17T11:04:32;16.20;99.90
316;DHT22;14128;48.686;9.738;2023-05-17T11:07:24;17.00;99.90
316;DHT22;14128;48.686;9.738;2023-05-17T11:09:53;17.70;99.90
316;DHT22;14128;48.686;9.738;2023-05-17T11:12:29;18.00;99.90
316;DHT22;14128;48.686;9.738;2023-05-17T11:14:58;19.40;99.90
316;DHT22;14128;48.686;9.738;2023-05-17T11:17:33;19.90;99.90
316;DHT22;14128;48.686;9.738;2023-05-17T11:20:02;19.00;99.90
316;DHT22;14128;48.686;9.738;2023-05-17T11:22:36;17.90;99.90
316;DHT22;14128;48.686;9.738;2023-05-17T11:25:08;17.30;99.90
316;DHT22;14128;48.686;9.738;2023-05-17T11:27:37;16.90;99.90
316;DHT22;14128;48.686;9.738;2023-05-17T11:30:09;16.90;99.90
316;DHT22;14128;48.686;9.738;2023-05-17T11:32:37;16.80;99.90
316;DHT22;14128;48.686;9.738;2023-05-17T11:35:05;16.60;99.90
316;DHT22;14128;48.686;9.738;2023-05-17T11:37:32;16.60;99.90
316;DHT22;14128;48.686;9.738;2023-05-17T11:40:03;16.30;99.90
316;DHT22;14128;48.686;9.738;2023-05-17T11:42:31;16.40;99.90
316;DHT22;14128;48.686;9.738;2023-05-17T11:45:00;16.60;99.90
316;DHT22;14128;48.686;9.738;2023-05-17T11:47:27;16.90;99.90
316;DHT22;14128;48.686;9.738;2023-05-17T11:49:59;17.80;99.90
316;DHT22;14128;48.686;9.738;2023-05-17T11:52:27;18.80;99.90
316;DHT22;14128;48.686;9.738;2023-05-17T11:54:55;18.10;99.90
316;DHT22;14128;48.686;9.738;2023-05-17T11:57:28;17.80;99.90
316;DHT22;14128;48.686;9.738;2023-05-17T11:59:58;18.40;99.90
316;DHT22;14128;48.686;9.738;2023-05-17T12:02:27;18.90;1.00
316;DHT22;14128;48.686;9.738;2023-05-17T12:04:53;19.20;1.00
316;DHT22;14128;48.686;9.738;2023-05-17T12:07:22;19.10;99.90
316;DHT22;14128;48.686;9.738;2023-05-17T12:09:50;19.20;99.90
316;DHT22;14128;48.686;9.738;2023-05-17T12:12:17;18.20;99.90
316;DHT22;14128;48.686;9.738;2023-05-17T12:14:46;17.80;99.90
316;DHT22;14128;48.686;9.738;2023-05-17T12:17:21;17.60;99.90
316;DHT22;14128;48.686;9.738;2023-05-17T12:19:52;17.70;99.90
316;DHT22;14128;48.686;9.738;2023-05-17T12:22:19;18.00;99.90
316;DHT22;14128;48.686;9.738;2023-05-17T12:24:47;18.10;99.90
316;DHT22;14128;48.686;9.738;2023-05-17T12:27:23;18.70;99.90
316;DHT22;14128;48.686;9.738;2023-05-17T12:29:50;18.90;99.90
316;DHT22;14128;48.686;9.738;2023-05-17T12:32:17;19.10;99.90
316;DHT22;14128;48.686;9.738;2023-05-17T12:34:45;18.70;99.90
316;DHT22;14128;48.686;9.738;2023-05-17T12:37:12;18.50;99.90
316;DHT22;14128;48.686;9.738;2023-05-17T12:39:39;18.10;99.90
316;DHT22;14128;48.686;9.738;2023-05-17T12:42:08;18.20;99.90
316;DHT22;14128;48.686;9.738;2023-05-17T12:44:35;17.70;99.90
316;DHT22;14128;48.686;9.738;2023-05-17T12:47:01;17.50;99.90
316;DHT22;14128;48.686;9.738;2023-05-17T12:49:28;17.40;99.90
316;DHT22;14128;48.686;9.738;2023-05-17T12:51:55;17.70;99.90
316;DHT22;14128;48.686;9.738;2023-05-17T12:54:26;18.10;99.90
316;DHT22;14128;48.686;9.738;2023-05-17T12:56:53;18.40;99.90
316;DHT22;14128;48.686;9.738;2023-05-17T12:59:22;19.10;99.90
316;DHT22;14128;48.686;9.738;2023-05-17T13:01:51;19.10;99.90
316;DHT22;14128;48.686;9.738;2023-05-17T13:04:26;18.50;99.90
316;DHT22;14128;48.686;9.738;2023-05-17T13:06:56;18.30;99.90
316;DHT22;14128;48.686;9.738;2023-05-17T13:09:24;18.60;99.90
316;DHT22;14128;48.686;9.738;2023-05-17T13:11:54;18.50;99.90
316;DHT22;14128;48.686;9.738;2023-05-17T13:14:37;18.90;99.90
316;DHT22;14128;48.686;9.738;2023-05-17T13:17:05;19.80;99.90
316;DHT22;14128;48.686;9.738;2023-05-17T13:19:33;19.90;99.90
316;DHT22;14128;48.686;9.738;2023-05-17T13:22:00;19.10;99.90
316;DHT22;14128;48.686;9.738;2023-05-17T13:24:27;18.40;99.90
316;DHT22;14128;48.686;9.738;2023-05-17T13:26:53;18.00;99.90
316;DHT22;14128;48.686;9.738;2023-05-17T13:29:20;18.20;99.90
316;DHT22;14128;48.686;9.738;2023-05-17T13:31:49;18.70;99.90
316;DHT22;14128;48.686;9.738;2023-05-17T13:34:17;18.70;99.90
316;DHT22;14128;48.686;9.738;2023-05-17T13:36:45;18.20;99.90
316;DHT22;14128;48.686;9.738;2023-05-17T13:39:12;18.20;99.90
316;DHT22;14128;48.686;9.738;2023-05-17T13:41:39;18.70;99.90
316;DHT22;14128;48.686;9.738;2023-05-17T13:44:06;21.10;99.90
316;DHT22;14128;48.686;9.738;2023-05-17T13:46:33;21.60;99.90
316;DHT22;14128;48.686;9.738;2023-05-17T13:49:01;21.10;99.90
316;DHT22;14128;48.686;9.738;2023-05-17T13:51:29;20.70;99.90
316;DHT22;14128;48.686;9.738;2023-05-17T13:53:56;20.50;99.90
316;DHT22;14128;48.686;9.738;2023-05-17T13:56:22;20.80;99.90
316;DHT22;14128;48.686;9.738;2023-05-17T13:58:49;20.10;99.90
316;DHT22;14128;48.686;9.738;2023-05-17T14:01:16;19.00;99.90
316;DHT22;14128;48.686;9.738;2023-05-17T14:03:43;18.00;99.90
316;DHT22;14128;48.686;9.738;2023-05-17T14:06:11;17.30;99.90
316;DHT22;14128;48.686;9.738;2023-05-17T14:08:38;16.90;99.90
316;DHT22;14128;48.686;9.738;2023-05-17T14:11:05;16.50;99.90
316;DHT22;14128;48.686;9.738;2023-05-17T14:13:32;16.20;99.90
316;DHT22;14128;48.686;9.738;2023-05-17T14:15:59;16.00;99.90
316;DHT22;14128;48.686;9.738;2023-05-17T14:18:26;15.60;99.90
316;DHT22;14128;48.686;9.738;2023-05-17T14:20:52;15.50;99.90
316;DHT22;14128;48.686;9.738;2023-05-17T14:23:21;15.60;99.90
316;DHT22;14128;48.686;9.738;2023-05-17T14:25:47;15.50;99.90
316;DHT22;14128;48.686;9.738;2023-05-17T14:28:15;15.70;99.90
316;DHT22;14128;48.686;9.738;2023-05-17T14:30:42;16.00;99.90
316;DHT22;14128;48.686;9.738;2023-05-17T14:33:09;16.70;99.90
316;DHT22;14128;48.686;9.738;2023-05-17T14:35:36;17.60;99.90
316;DHT22;14128;48.686;9.738;2023-05-17T14:38:03;17.60;99.90
316;DHT22;14128;48.686;9.738;2023-05-17T14:40:31;16.60;99.90
316;DHT22;14128;48.686;9.738;2023-05-17T14:42:58;15.60;99.90
316;DHT22;14128;48.686;9.738;2023-05-17T14:45:25;15.30;99.90
316;DHT22;14128;48.686;9.738;2023-05-17T14:47:52;14.70;99.90
316;DHT22;14128;48.686;9.738;2023-05-17T14:50:19;14.30;99.90
316;DHT22;14128;48.686;9.738;2023-05-17T14:52:45;13.90;99.90
316;DHT22;14128;48.686;9.738;2023-05-17T14:55:12;13.80;99.90
316;DHT22;14128;48.686;9.738;2023-05-17T14:57:42;13.90;99.90
316;DHT22;14128;48.686;9.738;2023-05-17T15:00:10;13.90;99.90
316;DHT22;14128;48.686;9.738;2023-05-17T15:02:37;13.90;99.90
316;DHT22;14128;48.686;9.738;2023-05-17T15:05:05;13.90;99.90
316;DHT22;14128;48.686;9.738;2023-05-17T15:07:32;13.80;99.90
316;DHT22;14128;48.686;9.738;2023-05-17T15:09:59;13.80;99.90
316;DHT22;14128;48.686;9.738;2023-05-17T15:12:25;13.90;99.90
316;DHT22;14128;48.686;9.738;2023-05-17T15:14:54;14.10;99.90
316;DHT22;14128;48.686;9.738;2023-05-17T15:17:21;14.50;99.90
316;DHT22;14128;48.686;9.738;2023-05-17T15:19:48;14.50;99.90
316;DHT22;14128;48.686;9.738;2023-05-17T15:22:15;14.80;99.90
316;DHT22;14128;48.686;9.738;2023-05-17T15:24:43;14.80;99.90
316;DHT22;14128;48.686;9.738;2023-05-17T15:27:10;14.90;99.90
316;DHT22;14128;48.686;9.738;2023-05-17T15:29:40;15.00;99.90
316;DHT22;14128;48.686;9.738;2023-05-17T15:32:09;15.50;99.90
316;DHT22;14128;48.686;9.738;2023-05-17T15:34:36;16.00;99.90
316;DHT22;14128;48.686;9.738;2023-05-17T15:37:03;15.90;99.90
316;DHT22;14128;48.686;9.738;2023-05-17T15:39:30;15.80;99.90
316;DHT22;14128;48.686;9.738;2023-05-17T15:41:56;15.90;99.90
316;DHT22;14128;48.686;9.738;2023-05-17T15:44:23;16.20;99.90
316;DHT22;14128;48.686;9.738;2023-05-17T15:46:50;16.20;99.90
316;DHT22;14128;48.686;9.738;2023-05-17T15:49:18;16.00;99.90
316;DHT22;14128;48.686;9.738;2023-05-17T15:51:45;15.70;99.90
316;DHT22;14128;48.686;9.738;2023-05-17T15:54:12;15.30;99.90
316;DHT22;14128;48.686;9.738;2023-05-17T15:56:40;15.40;99.90
316;DHT22;14128;48.686;9.738;2023-05-17T15:59:07;14.90;99.90
316;DHT22;14128;48.686;9.738;2023-05-17T16:01:34;14.70;99.90
316;DHT22;14128;48.686;9.738;2023-05-17T16:04:00;14.70;99.90
316;DHT22;14128;48.686;9.738;2023-05-17T16:06:29;14.60;99.90
316;DHT22;14128;48.686;9.738;2023-05-17T16:09:00;14.60;99.90
316;DHT22;14128;48.686;9.738;2023-05-17T16:11:27;14.80;99.90
316;DHT22;14128;48.686;9.738;2023-05-17T16:13:54;14.90;99.90
316;DHT22;14128;48.686;9.738;2023-05-17T16:16:21;15.10;99.90
316;DHT22;14128;48.686;9.738;2023-05-17T16:18:48;15.40;99.90
316;DHT22;14128;48.686;9.738;2023-05-17T16:21:15;15.70;99.90